sensor_id;sensor_type;location;lat;lon;timestamp;P1;durP1;ratioP1;P2;durP2;ratioP2
57249;SDS011;43102;52.014;-0.680;2023-04-02T00:03:03;5.60;;;3.30;;
57249;SDS011;43102;52.014;-0.680;2023-04-02T00:04:03;5.60;;;3.30;;
57249;SDS011;43102;52.014;-0.680;2023-04-02T00:06:01;3.70;;;2.70;;
57249;SDS011;43102;52.014;-0.680;2023-04-02T00:07:22;3.70;;;2.70;;
57249;SDS011;43102;52.014;-0.680;2023-04-02T00:08:03;3.70;;;2.70;;
57249;SDS011;43102;52.014;-0.680;2023-04-02T00:10:01;3.70;;;2.70;;
57249;SDS011;43102;52.014;-0.680;2023-04-02T00:11:01;3.70;;;2.70;;
57249;SDS011;43102;52.014;-0.680;2023-04-02T00:12:15;3.70;;;2.70;;
57249;SDS011;43102;52.014;-0.680;2023-04-02T00:13:03;3.70;;;2.70;;
57249;SDS011;43102;52.014;-0.680;2023-04-02T00:14:02;3.70;;;2.70;;
57249;SDS011;43102;52.014;-0.680;2023-04-02T00:15:01;3.70;;;2.70;;
57249;SDS011;43102;52.014;-0.680;2023-04-02T00:16:03;3.70;;;2.70;;
57249;SDS011;43102;52.014;-0.680;2023-04-02T00:17:03;3.70;;;2.70;;
57249;SDS011;43102;52.014;-0.680;2023-04-02T00:18:02;3.70;;;2.70;;
57249;SDS011;43102;52.014;-0.680;2023-04-02T00:19:03;3.70;;;2.70;;
57249;SDS011;43102;52.014;-0.680;2023-04-02T00:20:05;3.70;;;2.70;;
57249;SDS011;43102;52.014;-0.680;2023-04-02T00:21:13;3.70;;;2.70;;
57249;SDS011;43102;52.014;-0.680;2023-04-02T00:22:02;3.70;;;2.70;;
57249;SDS011;43102;52.014;-0.680;2023-04-02T00:23:02;3.70;;;2.70;;
57249;SDS011;43102;52.014;-0.680;2023-04-02T00:24:05;3.70;;;2.70;;
57249;SDS011;43102;52.014;-0.680;2023-04-02T00:25:09;3.70;;;2.70;;
57249;SDS011;43102;52.014;-0.680;2023-04-02T00:26:01;3.70;;;2.70;;
57249;SDS011;43102;52.014;-0.680;2023-04-02T00:27:00;3.70;;;2.70;;
57249;SDS011;43102;52.014;-0.680;2023-04-02T00:28:02;3.70;;;2.70;;
57249;SDS011;43102;52.014;-0.680;2023-04-02T00:29:03;3.70;;;2.70;;
57249;SDS011;43102;52.014;-0.680;2023-04-02T00:30:03;3.70;;;2.70;;
57249;SDS011;43102;52.014;-0.680;2023-04-02T00:31:00;3.70;;;2.70;;
57249;SDS011;43102;52.014;-0.680;2023-04-02T00:32:01;3.70;;;2.70;;
57249;SDS011;43102;52.014;-0.680;2023-04-02T00:33:00;3.70;;;2.70;;
57249;SDS011;43102;52.014;-0.680;2023-04-02T00:34:03;3.70;;;2.70;;
57249;SDS011;43102;52.014;-0.680;2023-04-02T00:35:01;3.70;;;2.70;;
57249;SDS011;43102;52.014;-0.680;2023-04-02T00:36:05;3.30;;;2.50;;
57249;SDS011;43102;52.014;-0.680;2023-04-02T00:37:01;3.30;;;2.50;;
57249;SDS011;43102;52.014;-0.680;2023-04-02T00:38:01;3.30;;;2.50;;
57249;SDS011;43102;52.014;-0.680;2023-04-02T00:39:06;3.30;;;2.50;;
57249;SDS011;43102;52.014;-0.680;2023-04-02T00:40:04;3.30;;;2.50;;
57249;SDS011;43102;52.014;-0.680;2023-04-02T00:41:03;3.30;;;2.50;;
57249;SDS011;43102;52.014;-0.680;2023-04-02T00:42:04;3.30;;;2.50;;
57249;SDS011;43102;52.014;-0.680;2023-04-02T00:43:03;3.30;;;2.50;;
57249;SDS011;43102;52.014;-0.680;2023-04-02T00:44:01;3.30;;;2.50;;
57249;SDS011;43102;52.014;-0.680;2023-04-02T00:45:01;3.30;;;2.50;;
57249;SDS011;43102;52.014;-0.680;2023-04-02T00:46:04;3.30;;;2.50;;
57249;SDS011;43102;52.014;-0.680;2023-04-02T00:47:20;3.30;;;2.50;;
57249;SDS011;43102;52.014;-0.680;2023-04-02T00:48:13;3.30;;;2.50;;
57249;SDS011;43102;52.014;-0.680;2023-04-02T00:49:09;3.30;;;2.50;;
57249;SDS011;43102;52.014;-0.680;2023-04-02T00:51:09;3.30;;;2.50;;
57249;SDS011;43102;52.014;-0.680;2023-04-02T00:52:06;3.30;;;2.50;;
57249;SDS011;43102;52.014;-0.680;2023-04-02T00:53:09;3.30;;;2.50;;
57249;SDS011;43102;52.014;-0.680;2023-04-02T00:54:04;3.30;;;2.50;;
57249;SDS011;43102;52.014;-0.680;2023-04-02T00:55:06;3.30;;;2.50;;
57249;SDS011;43102;52.014;-0.680;2023-04-02T00:56:02;3.30;;;2.50;;
57249;SDS011;43102;52.014;-0.680;2023-04-02T00:57:01;3.30;;;2.50;;
57249;SDS011;43102;52.014;-0.680;2023-04-02T00:58:01;3.30;;;2.50;;
57249;SDS011;43102;52.014;-0.680;2023-04-02T00:59:00;3.30;;;2.50;;
57249;SDS011;43102;52.014;-0.680;2023-04-02T01:00:19;3.30;;;2.50;;
57249;SDS011;43102;52.014;-0.680;2023-04-02T01:01:02;3.30;;;2.50;;
57249;SDS011;43102;52.014;-0.680;2023-04-02T01:04:02;3.30;;;2.50;;
57249;SDS011;43102;52.014;-0.680;2023-04-02T01:05:03;3.30;;;2.50;;
57249;SDS011;43102;52.014;-0.680;2023-04-02T01:06:08;4.80;;;3.50;;
57249;SDS011;43102;52.014;-0.680;2023-04-02T01:07:06;4.80;;;3.50;;
57249;SDS011;43102;52.014;-0.680;2023-04-02T01:13:10;4.80;;;3.50;;
57249;SDS011;43102;52.014;-0.680;2023-04-02T01:14:11;4.80;;;3.50;;
57249;SDS011;43102;52.014;-0.680;2023-04-02T01:15:12;4.80;;;3.50;;
57249;SDS011;43102;52.014;-0.680;2023-04-02T01:16:10;4.80;;;3.50;;
57249;SDS011;43102;52.014;-0.680;2023-04-02T01:17:10;4.80;;;3.50;;
57249;SDS011;43102;52.014;-0.680;2023-04-02T01:18:31;4.80;;;3.50;;
57249;SDS011;43102;52.014;-0.680;2023-04-02T01:22:04;4.80;;;3.50;;
57249;SDS011;43102;52.014;-0.680;2023-04-02T01:24:05;4.80;;;3.50;;
57249;SDS011;43102;52.014;-0.680;2023-04-02T01:25:03;4.80;;;3.50;;
57249;SDS011;43102;52.014;-0.680;2023-04-02T01:27:05;4.80;;;3.50;;
57249;SDS011;43102;52.014;-0.680;2023-04-02T01:28:08;4.80;;;3.50;;
57249;SDS011;43102;52.014;-0.680;2023-04-02T01:30:02;4.80;;;3.50;;
57249;SDS011;43102;52.014;-0.680;2023-04-02T01:31:02;4.80;;;3.50;;
57249;SDS011;43102;52.014;-0.680;2023-04-02T01:32:06;4.80;;;3.50;;
57249;SDS011;43102;52.014;-0.680;2023-04-02T01:33:01;4.80;;;3.50;;
57249;SDS011;43102;52.014;-0.680;2023-04-02T01:34:03;4.80;;;3.50;;
57249;SDS011;43102;52.014;-0.680;2023-04-02T01:35:00;4.80;;;3.50;;
57249;SDS011;43102;52.014;-0.680;2023-04-02T01:36:15;7.10;;;4.70;;
57249;SDS011;43102;52.014;-0.680;2023-04-02T01:38:13;7.10;;;4.70;;
57249;SDS011;43102;52.014;-0.680;2023-04-02T01:39:12;7.10;;;4.70;;
57249;SDS011;43102;52.014;-0.680;2023-04-02T01:41:07;7.10;;;4.70;;
57249;SDS011;43102;52.014;-0.680;2023-04-02T01:42:10;7.10;;;4.70;;
57249;SDS011;43102;52.014;-0.680;2023-04-02T01:44:11;7.10;;;4.70;;
57249;SDS011;43102;52.014;-0.680;2023-04-02T01:45:04;7.10;;;4.70;;
57249;SDS011;43102;52.014;-0.680;2023-04-02T01:46:27;7.10;;;4.70;;
57249;SDS011;43102;52.014;-0.680;2023-04-02T01:47:02;7.10;;;4.70;;
57249;SDS011;43102;52.014;-0.680;2023-04-02T01:48:07;7.10;;;4.70;;
57249;SDS011;43102;52.014;-0.680;2023-04-02T01:49:09;7.10;;;4.70;;
57249;SDS011;43102;52.014;-0.680;2023-04-02T01:50:11;7.10;;;4.70;;
57249;SDS011;43102;52.014;-0.680;2023-04-02T01:51:06;7.10;;;4.70;;
57249;SDS011;43102;52.014;-0.680;2023-04-02T01:52:00;7.10;;;4.70;;
57249;SDS011;43102;52.014;-0.680;2023-04-02T01:53:04;7.10;;;4.70;;
57249;SDS011;43102;52.014;-0.680;2023-04-02T01:54:03;7.10;;;4.70;;
57249;SDS011;43102;52.014;-0.680;2023-04-02T01:55:02;7.10;;;4.70;;
57249;SDS011;43102;52.014;-0.680;2023-04-02T01:56:02;7.10;;;4.70;;
57249;SDS011;43102;52.014;-0.680;2023-04-02T01:57:00;7.10;;;4.70;;
57249;SDS011;43102;52.014;-0.680;2023-04-02T01:58:02;7.10;;;4.70;;
57249;SDS011;43102;52.014;-0.680;2023-04-02T01:59:04;7.10;;;4.70;;
57249;SDS011;43102;52.014;-0.680;2023-04-02T02:00:07;7.10;;;4.70;;
57249;SDS011;43102;52.014;-0.680;2023-04-02T02:01:04;7.10;;;4.70;;
57249;SDS011;43102;52.014;-0.680;2023-04-02T02:02:04;7.10;;;4.70;;
57249;SDS011;43102;52.014;-0.680;2023-04-02T02:03:01;7.10;;;4.70;;
57249;SDS011;43102;52.014;-0.680;2023-04-02T02:04:01;7.10;;;4.70;;
57249;SDS011;43102;52.014;-0.680;2023-04-02T02:05:01;7.10;;;4.70;;
57249;SDS011;43102;52.014;-0.680;2023-04-02T02:06:01;8.70;;;4.90;;
57249;SDS011;43102;52.014;-0.680;2023-04-02T02:07:02;8.70;;;4.90;;
57249;SDS011;43102;52.014;-0.680;2023-04-02T02:08:01;8.70;;;4.90;;
57249;SDS011;43102;52.014;-0.680;2023-04-02T02:09:04;8.70;;;4.90;;
57249;SDS011;43102;52.014;-0.680;2023-04-02T02:10:01;8.70;;;4.90;;
57249;SDS011;43102;52.014;-0.680;2023-04-02T02:11:01;8.70;;;4.90;;
57249;SDS011;43102;52.014;-0.680;2023-04-02T02:12:02;8.70;;;4.90;;
57249;SDS011;43102;52.014;-0.680;2023-04-02T02:13:01;8.70;;;4.90;;
57249;SDS011;43102;52.014;-0.680;2023-04-02T02:14:07;8.70;;;4.90;;
57249;SDS011;43102;52.014;-0.680;2023-04-02T02:15:01;8.70;;;4.90;;
57249;SDS011;43102;52.014;-0.680;2023-04-02T02:16:03;8.70;;;4.90;;
57249;SDS011;43102;52.014;-0.680;2023-04-02T02:17:02;8.70;;;4.90;;
57249;SDS011;43102;52.014;-0.680;2023-04-02T02:18:04;8.70;;;4.90;;
57249;SDS011;43102;52.014;-0.680;2023-04-02T02:19:02;8.70;;;4.90;;
57249;SDS011;43102;52.014;-0.680;2023-04-02T02:20:08;8.70;;;4.90;;
57249;SDS011;43102;52.014;-0.680;2023-04-02T02:21:03;8.70;;;4.90;;
57249;SDS011;43102;52.014;-0.680;2023-04-02T02:23:02;8.70;;;4.90;;
57249;SDS011;43102;52.014;-0.680;2023-04-02T02:24:01;8.70;;;4.90;;
57249;SDS011;43102;52.014;-0.680;2023-04-02T02:25:05;8.70;;;4.90;;
57249;SDS011;43102;52.014;-0.680;2023-04-02T02:26:00;8.70;;;4.90;;
57249;SDS011;43102;52.014;-0.680;2023-04-02T02:28:05;8.70;;;4.90;;
57249;SDS011;43102;52.014;-0.680;2023-04-02T02:29:03;8.70;;;4.90;;
57249;SDS011;43102;52.014;-0.680;2023-04-02T02:30:10;8.70;;;4.90;;
57249;SDS011;43102;52.014;-0.680;2023-04-02T02:31:05;8.70;;;4.90;;
57249;SDS011;43102;52.014;-0.680;2023-04-02T02:32:02;8.70;;;4.90;;
57249;SDS011;43102;52.014;-0.680;2023-04-02T02:33:23;8.70;;;4.90;;
57249;SDS011;43102;52.014;-0.680;2023-04-02T02:34:07;8.70;;;4.90;;
57249;SDS011;43102;52.014;-0.680;2023-04-02T02:36:06;9.50;;;4.60;;
57249;SDS011;43102;52.014;-0.680;2023-04-02T02:37:05;9.50;;;4.60;;
57249;SDS011;43102;52.014;-0.680;2023-04-02T02:39:02;9.50;;;4.60;;
57249;SDS011;43102;52.014;-0.680;2023-04-02T02:40:04;9.50;;;4.60;;
57249;SDS011;43102;52.014;-0.680;2023-04-02T02:41:06;9.50;;;4.60;;
57249;SDS011;43102;52.014;-0.680;2023-04-02T02:43:03;9.50;;;4.60;;
57249;SDS011;43102;52.014;-0.680;2023-04-02T02:44:13;9.50;;;4.60;;
57249;SDS011;43102;52.014;-0.680;2023-04-02T02:45:04;9.50;;;4.60;;
57249;SDS011;43102;52.014;-0.680;2023-04-02T02:46:04;9.50;;;4.60;;
57249;SDS011;43102;52.014;-0.680;2023-04-02T02:47:03;9.50;;;4.60;;
57249;SDS011;43102;52.014;-0.680;2023-04-02T02:48:01;9.50;;;4.60;;
57249;SDS011;43102;52.014;-0.680;2023-04-02T02:49:03;9.50;;;4.60;;
57249;SDS011;43102;52.014;-0.680;2023-04-02T02:50:05;9.50;;;4.60;;
57249;SDS011;43102;52.014;-0.680;2023-04-02T02:51:04;9.50;;;4.60;;
57249;SDS011;43102;52.014;-0.680;2023-04-02T02:52:15;9.50;;;4.60;;
57249;SDS011;43102;52.014;-0.680;2023-04-02T02:53:05;9.50;;;4.60;;
57249;SDS011;43102;52.014;-0.680;2023-04-02T02:54:02;9.50;;;4.60;;
57249;SDS011;43102;52.014;-0.680;2023-04-02T02:55:04;9.50;;;4.60;;
57249;SDS011;43102;52.014;-0.680;2023-04-02T02:56:01;9.50;;;4.60;;
57249;SDS011;43102;52.014;-0.680;2023-04-02T02:57:04;9.50;;;4.60;;
57249;SDS011;43102;52.014;-0.680;2023-04-02T02:58:06;9.50;;;4.60;;
57249;SDS011;43102;52.014;-0.680;2023-04-02T02:59:02;9.50;;;4.60;;
57249;SDS011;43102;52.014;-0.680;2023-04-02T03:00:02;9.50;;;4.60;;
57249;SDS011;43102;52.014;-0.680;2023-04-02T03:01:02;9.50;;;4.60;;
57249;SDS011;43102;52.014;-0.680;2023-04-02T03:02:01;9.50;;;4.60;;
57249;SDS011;43102;52.014;-0.680;2023-04-02T03:03:04;9.50;;;4.60;;
57249;SDS011;43102;52.014;-0.680;2023-04-02T03:04:01;9.50;;;4.60;;
57249;SDS011;43102;52.014;-0.680;2023-04-02T03:05:01;9.50;;;4.60;;
57249;SDS011;43102;52.014;-0.680;2023-04-02T03:06:04;11.20;;;5.40;;
57249;SDS011;43102;52.014;-0.680;2023-04-02T03:07:02;11.20;;;5.40;;
57249;SDS011;43102;52.014;-0.680;2023-04-02T03:08:02;11.20;;;5.40;;
57249;SDS011;43102;52.014;-0.680;2023-04-02T03:09:12;11.20;;;5.40;;
57249;SDS011;43102;52.014;-0.680;2023-04-02T03:10:16;11.20;;;5.40;;
57249;SDS011;43102;52.014;-0.680;2023-04-02T03:11:02;11.20;;;5.40;;
57249;SDS011;43102;52.014;-0.680;2023-04-02T03:14:15;11.20;;;5.40;;
57249;SDS011;43102;52.014;-0.680;2023-04-02T03:15:07;11.20;;;5.40;;
57249;SDS011;43102;52.014;-0.680;2023-04-02T03:17:16;11.20;;;5.40;;
57249;SDS011;43102;52.014;-0.680;2023-04-02T03:18:01;11.20;;;5.40;;
57249;SDS011;43102;52.014;-0.680;2023-04-02T03:19:09;11.20;;;5.40;;
57249;SDS011;43102;52.014;-0.680;2023-04-02T03:20:06;11.20;;;5.40;;
57249;SDS011;43102;52.014;-0.680;2023-04-02T03:21:13;11.20;;;5.40;;
57249;SDS011;43102;52.014;-0.680;2023-04-02T03:22:10;11.20;;;5.40;;
57249;SDS011;43102;52.014;-0.680;2023-04-02T03:23:20;11.20;;;5.40;;
57249;SDS011;43102;52.014;-0.680;2023-04-02T03:24:03;11.20;;;5.40;;
57249;SDS011;43102;52.014;-0.680;2023-04-02T03:26:07;11.20;;;5.40;;
57249;SDS011;43102;52.014;-0.680;2023-04-02T03:27:11;11.20;;;5.40;;
57249;SDS011;43102;52.014;-0.680;2023-04-02T03:28:06;11.20;;;5.40;;
57249;SDS011;43102;52.014;-0.680;2023-04-02T03:29:07;11.20;;;5.40;;
57249;SDS011;43102;52.014;-0.680;2023-04-02T03:31:05;11.20;;;5.40;;
57249;SDS011;43102;52.014;-0.680;2023-04-02T03:32:05;11.20;;;5.40;;
57249;SDS011;43102;52.014;-0.680;2023-04-02T03:33:05;11.20;;;5.40;;
57249;SDS011;43102;52.014;-0.680;2023-04-02T03:34:07;11.20;;;5.40;;
57249;SDS011;43102;52.014;-0.680;2023-04-02T03:35:20;11.20;;;5.40;;
57249;SDS011;43102;52.014;-0.680;2023-04-02T03:36:15;10.20;;;5.90;;
57249;SDS011;43102;52.014;-0.680;2023-04-02T03:40:01;10.20;;;5.90;;
57249;SDS011;43102;52.014;-0.680;2023-04-02T03:41:06;10.20;;;5.90;;
57249;SDS011;43102;52.014;-0.680;2023-04-02T03:42:13;10.20;;;5.90;;
57249;SDS011;43102;52.014;-0.680;2023-04-02T03:43:14;10.20;;;5.90;;
57249;SDS011;43102;52.014;-0.680;2023-04-02T03:44:14;10.20;;;5.90;;
57249;SDS011;43102;52.014;-0.680;2023-04-02T03:45:06;10.20;;;5.90;;
57249;SDS011;43102;52.014;-0.680;2023-04-02T03:46:14;10.20;;;5.90;;
57249;SDS011;43102;52.014;-0.680;2023-04-02T03:47:08;10.20;;;5.90;;
57249;SDS011;43102;52.014;-0.680;2023-04-02T03:48:07;10.20;;;5.90;;
57249;SDS011;43102;52.014;-0.680;2023-04-02T03:49:06;10.20;;;5.90;;
57249;SDS011;43102;52.014;-0.680;2023-04-02T03:51:06;10.20;;;5.90;;
57249;SDS011;43102;52.014;-0.680;2023-04-02T03:52:08;10.20;;;5.90;;
57249;SDS011;43102;52.014;-0.680;2023-04-02T03:53:02;10.20;;;5.90;;
57249;SDS011;43102;52.014;-0.680;2023-04-02T03:54:01;10.20;;;5.90;;
57249;SDS011;43102;52.014;-0.680;2023-04-02T03:55:01;10.20;;;5.90;;
57249;SDS011;43102;52.014;-0.680;2023-04-02T03:56:01;10.20;;;5.90;;
57249;SDS011;43102;52.014;-0.680;2023-04-02T03:57:01;10.20;;;5.90;;
57249;SDS011;43102;52.014;-0.680;2023-04-02T04:00:07;10.20;;;5.90;;
57249;SDS011;43102;52.014;-0.680;2023-04-02T04:01:04;10.20;;;5.90;;
57249;SDS011;43102;52.014;-0.680;2023-04-02T04:03:12;10.20;;;5.90;;
57249;SDS011;43102;52.014;-0.680;2023-04-02T04:04:15;10.20;;;5.90;;
57249;SDS011;43102;52.014;-0.680;2023-04-02T04:05:01;10.20;;;5.90;;
57249;SDS011;43102;52.014;-0.680;2023-04-02T04:06:09;12.70;;;5.50;;
57249;SDS011;43102;52.014;-0.680;2023-04-02T04:07:01;12.70;;;5.50;;
57249;SDS011;43102;52.014;-0.680;2023-04-02T04:08:13;12.70;;;5.50;;
57249;SDS011;43102;52.014;-0.680;2023-04-02T04:09:09;12.70;;;5.50;;
57249;SDS011;43102;52.014;-0.680;2023-04-02T04:10:02;12.70;;;5.50;;
57249;SDS011;43102;52.014;-0.680;2023-04-02T04:11:13;12.70;;;5.50;;
57249;SDS011;43102;52.014;-0.680;2023-04-02T04:13:04;12.70;;;5.50;;
57249;SDS011;43102;52.014;-0.680;2023-04-02T04:15:28;12.70;;;5.50;;
57249;SDS011;43102;52.014;-0.680;2023-04-02T04:16:05;12.70;;;5.50;;
57249;SDS011;43102;52.014;-0.680;2023-04-02T04:17:14;12.70;;;5.50;;
57249;SDS011;43102;52.014;-0.680;2023-04-02T04:18:14;12.70;;;5.50;;
57249;SDS011;43102;52.014;-0.680;2023-04-02T04:19:09;12.70;;;5.50;;
57249;SDS011;43102;52.014;-0.680;2023-04-02T04:20:13;12.70;;;5.50;;
57249;SDS011;43102;52.014;-0.680;2023-04-02T04:22:10;12.70;;;5.50;;
57249;SDS011;43102;52.014;-0.680;2023-04-02T04:23:16;12.70;;;5.50;;
57249;SDS011;43102;52.014;-0.680;2023-04-02T04:24:03;12.70;;;5.50;;
57249;SDS011;43102;52.014;-0.680;2023-04-02T04:25:03;12.70;;;5.50;;
57249;SDS011;43102;52.014;-0.680;2023-04-02T04:27:11;12.70;;;5.50;;
57249;SDS011;43102;52.014;-0.680;2023-04-02T04:31:10;12.70;;;5.50;;
57249;SDS011;43102;52.014;-0.680;2023-04-02T04:33:04;12.70;;;5.50;;
57249;SDS011;43102;52.014;-0.680;2023-04-02T04:34:07;12.70;;;5.50;;
57249;SDS011;43102;52.014;-0.680;2023-04-02T04:35:07;12.70;;;5.50;;
57249;SDS011;43102;52.014;-0.680;2023-04-02T04:36:02;11.20;;;5.40;;
57249;SDS011;43102;52.014;-0.680;2023-04-02T04:37:13;11.20;;;5.40;;
57249;SDS011;43102;52.014;-0.680;2023-04-02T04:38:15;11.20;;;5.40;;
57249;SDS011;43102;52.014;-0.680;2023-04-02T04:39:10;11.20;;;5.40;;
57249;SDS011;43102;52.014;-0.680;2023-04-02T04:41:04;11.20;;;5.40;;
57249;SDS011;43102;52.014;-0.680;2023-04-02T04:42:02;11.20;;;5.40;;
57249;SDS011;43102;52.014;-0.680;2023-04-02T04:43:10;11.20;;;5.40;;
57249;SDS011;43102;52.014;-0.680;2023-04-02T04:44:06;11.20;;;5.40;;
57249;SDS011;43102;52.014;-0.680;2023-04-02T04:46:09;11.20;;;5.40;;
57249;SDS011;43102;52.014;-0.680;2023-04-02T04:47:06;11.20;;;5.40;;
57249;SDS011;43102;52.014;-0.680;2023-04-02T04:48:04;11.20;;;5.40;;
57249;SDS011;43102;52.014;-0.680;2023-04-02T04:49:04;11.20;;;5.40;;
57249;SDS011;43102;52.014;-0.680;2023-04-02T04:50:11;11.20;;;5.40;;
57249;SDS011;43102;52.014;-0.680;2023-04-02T04:51:03;11.20;;;5.40;;
57249;SDS011;43102;52.014;-0.680;2023-04-02T04:52:13;11.20;;;5.40;;
57249;SDS011;43102;52.014;-0.680;2023-04-02T04:53:05;11.20;;;5.40;;
57249;SDS011;43102;52.014;-0.680;2023-04-02T04:54:00;11.20;;;5.40;;
57249;SDS011;43102;52.014;-0.680;2023-04-02T04:55:01;11.20;;;5.40;;
57249;SDS011;43102;52.014;-0.680;2023-04-02T04:56:13;11.20;;;5.40;;
57249;SDS011;43102;52.014;-0.680;2023-04-02T04:57:02;11.20;;;5.40;;
57249;SDS011;43102;52.014;-0.680;2023-04-02T04:58:07;11.20;;;5.40;;
57249;SDS011;43102;52.014;-0.680;2023-04-02T04:59:04;11.20;;;5.40;;
57249;SDS011;43102;52.014;-0.680;2023-04-02T05:00:21;11.20;;;5.40;;
57249;SDS011;43102;52.014;-0.680;2023-04-02T05:01:19;11.20;;;5.40;;
57249;SDS011;43102;52.014;-0.680;2023-04-02T05:02:05;11.20;;;5.40;;
57249;SDS011;43102;52.014;-0.680;2023-04-02T05:03:14;11.20;;;5.40;;
57249;SDS011;43102;52.014;-0.680;2023-04-02T05:04:08;11.20;;;5.40;;
57249;SDS011;43102;52.014;-0.680;2023-04-02T05:05:02;11.20;;;5.40;;
57249;SDS011;43102;52.014;-0.680;2023-04-02T05:06:10;9.30;;;4.40;;
57249;SDS011;43102;52.014;-0.680;2023-04-02T05:07:03;9.30;;;4.40;;
57249;SDS011;43102;52.014;-0.680;2023-04-02T05:08:12;9.30;;;4.40;;
57249;SDS011;43102;52.014;-0.680;2023-04-02T05:09:09;9.30;;;4.40;;
57249;SDS011;43102;52.014;-0.680;2023-04-02T05:11:05;9.30;;;4.40;;
57249;SDS011;43102;52.014;-0.680;2023-04-02T05:12:09;9.30;;;4.40;;
57249;SDS011;43102;52.014;-0.680;2023-04-02T05:13:06;9.30;;;4.40;;
57249;SDS011;43102;52.014;-0.680;2023-04-02T05:14:04;9.30;;;4.40;;
57249;SDS011;43102;52.014;-0.680;2023-04-02T05:15:09;9.30;;;4.40;;
57249;SDS011;43102;52.014;-0.680;2023-04-02T05:16:10;9.30;;;4.40;;
57249;SDS011;43102;52.014;-0.680;2023-04-02T05:17:09;9.30;;;4.40;;
57249;SDS011;43102;52.014;-0.680;2023-04-02T05:18:10;9.30;;;4.40;;
57249;SDS011;43102;52.014;-0.680;2023-04-02T05:21:05;9.30;;;4.40;;
57249;SDS011;43102;52.014;-0.680;2023-04-02T05:22:04;9.30;;;4.40;;
57249;SDS011;43102;52.014;-0.680;2023-04-02T05:23:03;9.30;;;4.40;;
57249;SDS011;43102;52.014;-0.680;2023-04-02T05:26:07;9.30;;;4.40;;
57249;SDS011;43102;52.014;-0.680;2023-04-02T05:27:08;9.30;;;4.40;;
57249;SDS011;43102;52.014;-0.680;2023-04-02T05:29:08;9.30;;;4.40;;
57249;SDS011;43102;52.014;-0.680;2023-04-02T05:31:07;9.30;;;4.40;;
57249;SDS011;43102;52.014;-0.680;2023-04-02T05:32:12;9.30;;;4.40;;
57249;SDS011;43102;52.014;-0.680;2023-04-02T05:33:23;9.30;;;4.40;;
57249;SDS011;43102;52.014;-0.680;2023-04-02T05:34:01;9.30;;;4.40;;
57249;SDS011;43102;52.014;-0.680;2023-04-02T05:35:05;9.30;;;4.40;;
57249;SDS011;43102;52.014;-0.680;2023-04-02T05:36:06;11.20;;;5.20;;
57249;SDS011;43102;52.014;-0.680;2023-04-02T05:37:00;11.20;;;5.20;;
57249;SDS011;43102;52.014;-0.680;2023-04-02T05:38:01;11.20;;;5.20;;
57249;SDS011;43102;52.014;-0.680;2023-04-02T05:39:00;11.20;;;5.20;;
57249;SDS011;43102;52.014;-0.680;2023-04-02T05:40:13;11.20;;;5.20;;
57249;SDS011;43102;52.014;-0.680;2023-04-02T05:41:04;11.20;;;5.20;;
57249;SDS011;43102;52.014;-0.680;2023-04-02T05:42:05;11.20;;;5.20;;
57249;SDS011;43102;52.014;-0.680;2023-04-02T05:43:02;11.20;;;5.20;;
57249;SDS011;43102;52.014;-0.680;2023-04-02T05:45:07;11.20;;;5.20;;
57249;SDS011;43102;52.014;-0.680;2023-04-02T05:46:05;11.20;;;5.20;;
57249;SDS011;43102;52.014;-0.680;2023-04-02T05:47:03;11.20;;;5.20;;
57249;SDS011;43102;52.014;-0.680;2023-04-02T05:48:06;11.20;;;5.20;;
57249;SDS011;43102;52.014;-0.680;2023-04-02T05:49:03;11.20;;;5.20;;
57249;SDS011;43102;52.014;-0.680;2023-04-02T05:51:04;11.20;;;5.20;;
57249;SDS011;43102;52.014;-0.680;2023-04-02T05:52:02;11.20;;;5.20;;
57249;SDS011;43102;52.014;-0.680;2023-04-02T05:53:07;11.20;;;5.20;;
57249;SDS011;43102;52.014;-0.680;2023-04-02T05:54:03;11.20;;;5.20;;
57249;SDS011;43102;52.014;-0.680;2023-04-02T05:57:08;11.20;;;5.20;;
57249;SDS011;43102;52.014;-0.680;2023-04-02T05:58:15;11.20;;;5.20;;
57249;SDS011;43102;52.014;-0.680;2023-04-02T05:59:09;11.20;;;5.20;;
57249;SDS011;43102;52.014;-0.680;2023-04-02T06:00:06;11.20;;;5.20;;
57249;SDS011;43102;52.014;-0.680;2023-04-02T06:01:05;11.20;;;5.20;;
57249;SDS011;43102;52.014;-0.680;2023-04-02T06:02:09;11.20;;;5.20;;
57249;SDS011;43102;52.014;-0.680;2023-04-02T06:03:06;11.20;;;5.20;;
57249;SDS011;43102;52.014;-0.680;2023-04-02T06:04:06;11.20;;;5.20;;
57249;SDS011;43102;52.014;-0.680;2023-04-02T06:05:04;11.20;;;5.20;;
57249;SDS011;43102;52.014;-0.680;2023-04-02T06:06:05;10.50;;;4.10;;
57249;SDS011;43102;52.014;-0.680;2023-04-02T06:07:06;10.50;;;4.10;;
57249;SDS011;43102;52.014;-0.680;2023-04-02T06:08:13;10.50;;;4.10;;
57249;SDS011;43102;52.014;-0.680;2023-04-02T06:09:06;10.50;;;4.10;;
57249;SDS011;43102;52.014;-0.680;2023-04-02T06:10:13;10.50;;;4.10;;
57249;SDS011;43102;52.014;-0.680;2023-04-02T06:11:11;10.50;;;4.10;;
57249;SDS011;43102;52.014;-0.680;2023-04-02T06:13:05;10.50;;;4.10;;
57249;SDS011;43102;52.014;-0.680;2023-04-02T06:14:02;10.50;;;4.10;;
57249;SDS011;43102;52.014;-0.680;2023-04-02T06:15:01;10.50;;;4.10;;
57249;SDS011;43102;52.014;-0.680;2023-04-02T06:16:01;10.50;;;4.10;;
57249;SDS011;43102;52.014;-0.680;2023-04-02T06:17:00;10.50;;;4.10;;
57249;SDS011;43102;52.014;-0.680;2023-04-02T06:19:01;10.50;;;4.10;;
57249;SDS011;43102;52.014;-0.680;2023-04-02T06:20:04;10.50;;;4.10;;
57249;SDS011;43102;52.014;-0.680;2023-04-02T06:21:01;10.50;;;4.10;;
57249;SDS011;43102;52.014;-0.680;2023-04-02T06:22:15;10.50;;;4.10;;
57249;SDS011;43102;52.014;-0.680;2023-04-02T06:23:10;10.50;;;4.10;;
57249;SDS011;43102;52.014;-0.680;2023-04-02T06:24:03;10.50;;;4.10;;
57249;SDS011;43102;52.014;-0.680;2023-04-02T06:25:08;10.50;;;4.10;;
57249;SDS011;43102;52.014;-0.680;2023-04-02T06:27:05;10.50;;;4.10;;
57249;SDS011;43102;52.014;-0.680;2023-04-02T06:28:04;10.50;;;4.10;;
57249;SDS011;43102;52.014;-0.680;2023-04-02T06:29:06;10.50;;;4.10;;
57249;SDS011;43102;52.014;-0.680;2023-04-02T06:30:04;10.50;;;4.10;;
57249;SDS011;43102;52.014;-0.680;2023-04-02T06:31:07;10.50;;;4.10;;
57249;SDS011;43102;52.014;-0.680;2023-04-02T06:32:01;10.50;;;4.10;;
57249;SDS011;43102;52.014;-0.680;2023-04-02T06:33:00;10.50;;;4.10;;
57249;SDS011;43102;52.014;-0.680;2023-04-02T06:34:02;10.50;;;4.10;;
57249;SDS011;43102;52.014;-0.680;2023-04-02T06:35:00;10.50;;;4.10;;
57249;SDS011;43102;52.014;-0.680;2023-04-02T06:36:03;9.80;;;3.90;;
57249;SDS011;43102;52.014;-0.680;2023-04-02T06:37:04;9.80;;;3.90;;
57249;SDS011;43102;52.014;-0.680;2023-04-02T06:38:03;9.80;;;3.90;;
57249;SDS011;43102;52.014;-0.680;2023-04-02T06:39:04;9.80;;;3.90;;
57249;SDS011;43102;52.014;-0.680;2023-04-02T06:40:03;9.80;;;3.90;;
57249;SDS011;43102;52.014;-0.680;2023-04-02T06:41:05;9.80;;;3.90;;
57249;SDS011;43102;52.014;-0.680;2023-04-02T06:42:09;9.80;;;3.90;;
57249;SDS011;43102;52.014;-0.680;2023-04-02T06:43:07;9.80;;;3.90;;
57249;SDS011;43102;52.014;-0.680;2023-04-02T06:44:08;9.80;;;3.90;;
57249;SDS011;43102;52.014;-0.680;2023-04-02T06:45:01;9.80;;;3.90;;
57249;SDS011;43102;52.014;-0.680;2023-04-02T06:47:04;9.80;;;3.90;;
57249;SDS011;43102;52.014;-0.680;2023-04-02T06:48:01;9.80;;;3.90;;
57249;SDS011;43102;52.014;-0.680;2023-04-02T06:49:10;9.80;;;3.90;;
57249;SDS011;43102;52.014;-0.680;2023-04-02T06:50:13;9.80;;;3.90;;
57249;SDS011;43102;52.014;-0.680;2023-04-02T06:51:05;9.80;;;3.90;;
57249;SDS011;43102;52.014;-0.680;2023-04-02T06:52:03;9.80;;;3.90;;
57249;SDS011;43102;52.014;-0.680;2023-04-02T06:53:05;9.80;;;3.90;;
57249;SDS011;43102;52.014;-0.680;2023-04-02T06:54:00;9.80;;;3.90;;
57249;SDS011;43102;52.014;-0.680;2023-04-02T06:55:04;9.80;;;3.90;;
57249;SDS011;43102;52.014;-0.680;2023-04-02T06:56:05;9.80;;;3.90;;
57249;SDS011;43102;52.014;-0.680;2023-04-02T06:57:01;9.80;;;3.90;;